createdAt,value
2023-02-22T13:00:17.685Z,19.30
2023-02-22T13:03:17.489Z,19.35
2023-02-22T13:04:21.598Z,19.32
2023-02-22T13:05:17.495Z,19.24
2023-02-22T13:06:17.367Z,19.22
2023-02-22T13:07:17.308Z,18.97
2023-02-22T13:08:17.267Z,18.92
2023-02-22T13:09:17.221Z,18.92
2023-02-22T13:10:17.178Z,18.92
2023-02-22T13:11:17.421Z,18.71
2023-02-22T13:12:17.097Z,18.83
2023-02-22T13:13:17.048Z,18.79
2023-02-22T13:14:17.006Z,18.76
2023-02-22T13:15:16.965Z,18.70
2023-02-22T13:16:17.001Z,18.73
2023-02-22T13:17:16.882Z,18.74
2023-02-22T13:18:16.855Z,18.78
2023-02-22T13:19:16.798Z,18.82
2023-02-22T13:20:16.998Z,18.92
2023-02-22T13:21:17.104Z,19.00
2023-02-22T13:22:16.700Z,19.07
2023-02-22T13:23:16.634Z,19.23
2023-02-22T13:24:16.604Z,19.23
2023-02-22T13:25:16.568Z,19.32
2023-02-22T13:26:16.509Z,19.19
2023-02-22T13:27:16.557Z,19.27
2023-02-22T13:28:16.428Z,19.27
2023-02-22T13:29:16.390Z,19.26
2023-02-22T13:30:16.377Z,19.35
2023-02-22T13:31:16.710Z,19.38
2023-02-22T13:32:16.356Z,19.24
2023-02-22T13:33:16.219Z,19.30
2023-02-22T13:34:16.174Z,19.34
2023-02-22T13:35:16.137Z,19.35
2023-02-22T13:36:16.358Z,19.37
2023-02-22T13:37:16.051Z,19.47
2023-02-22T13:38:16.015Z,19.44
2023-02-22T13:39:15.964Z,19.48
2023-02-22T13:40:15.927Z,19.39
2023-02-22T13:41:16.287Z,19.53
2023-02-22T13:42:15.840Z,19.52
2023-02-22T13:43:15.794Z,19.55
2023-02-22T13:44:15.760Z,19.55
2023-02-22T13:45:15.718Z,19.52
2023-02-22T13:46:16.167Z,19.56
2023-02-22T13:47:15.647Z,19.57
2023-02-22T13:48:15.624Z,19.44
2023-02-22T13:49:15.544Z,19.42
2023-02-22T13:50:15.510Z,19.37
2023-02-22T13:51:15.460Z,19.39
2023-02-22T13:52:15.426Z,19.32
2023-02-22T13:53:15.380Z,19.29
2023-02-22T13:54:15.337Z,19.29
2023-02-22T13:55:15.292Z,19.19
2023-02-22T13:56:15.724Z,19.05
2023-02-22T13:57:15.211Z,19.11
2023-02-22T13:58:15.170Z,19.01
2023-02-22T13:59:15.128Z,18.94
2023-02-22T14:00:15.093Z,18.94
2023-02-22T14:01:15.125Z,18.92
2023-02-22T14:02:15.002Z,18.97
2023-02-22T14:03:14.961Z,18.82
2023-02-22T14:04:14.951Z,18.70
2023-02-22T14:05:14.981Z,18.60
2023-02-22T14:06:14.973Z,18.57
2023-02-22T14:07:14.791Z,18.70
2023-02-22T14:08:14.754Z,18.68
2023-02-22T14:09:14.706Z,18.66
2023-02-22T14:10:14.669Z,18.83
2023-02-22T14:11:14.630Z,18.96
2023-02-22T14:12:14.583Z,18.98
2023-02-22T14:13:14.560Z,19.11
2023-02-22T14:14:14.508Z,19.00
2023-02-22T14:15:26.473Z,18.98
2023-02-22T14:16:14.521Z,19.07
2023-02-22T14:17:14.380Z,19.11
2023-02-22T14:18:14.334Z,19.17
2023-02-22T14:19:14.306Z,19.12
2023-02-22T14:20:14.274Z,19.08
2023-02-22T14:21:14.211Z,19.11
2023-02-22T14:22:14.169Z,19.08
2023-02-22T14:23:14.274Z,19.05
2023-02-22T14:24:14.088Z,18.98
2023-02-22T14:25:20.408Z,18.89
2023-02-22T14:26:14.020Z,18.88
2023-02-22T14:27:13.963Z,18.82
2023-02-22T14:28:13.914Z,18.74
2023-02-22T14:29:13.876Z,18.74
2023-02-22T14:30:13.846Z,18.66
2023-02-22T14:31:25.811Z,18.61
2023-02-22T14:32:13.863Z,18.58
2023-02-22T14:33:13.703Z,18.46
2023-02-22T14:34:13.672Z,18.45
2023-02-22T14:35:24.371Z,18.43
2023-02-22T14:36:13.640Z,18.41
2023-02-22T14:37:13.538Z,18.36
2023-02-22T14:38:13.507Z,18.27
2023-02-22T14:39:13.465Z,18.27
2023-02-22T14:40:13.693Z,18.31
2023-02-22T14:41:13.381Z,18.18
2023-02-22T14:42:13.419Z,18.16
2023-02-22T14:43:13.361Z,18.08
2023-02-22T14:44:13.250Z,18.00
2023-02-22T14:45:13.202Z,18.02
2023-02-22T14:46:13.874Z,17.95
2023-02-22T14:47:13.117Z,17.90
2023-02-22T14:48:13.076Z,17.86
2023-02-22T14:49:13.035Z,17.84
2023-02-22T14:50:13.006Z,17.88
2023-02-22T14:51:21.620Z,17.82
2023-02-22T14:52:12.929Z,17.76
2023-02-22T14:53:12.862Z,17.76
2023-02-22T14:54:12.835Z,17.76
2023-02-22T14:55:12.781Z,17.69
2023-02-22T14:56:12.744Z,17.59
2023-02-22T14:57:12.792Z,17.54
2023-02-22T14:58:12.652Z,17.59
2023-02-22T14:59:12.641Z,17.47
2023-02-22T15:00:12.568Z,17.53
2023-02-22T15:01:12.527Z,17.49
2023-02-22T15:02:12.721Z,17.46
2023-02-22T15:03:12.439Z,17.37
2023-02-22T15:04:12.426Z,17.39
2023-02-22T15:05:13.585Z,17.42
2023-02-22T15:06:12.324Z,17.35
2023-02-22T15:07:12.268Z,17.39
2023-02-22T15:08:12.258Z,17.41
2023-02-22T15:09:12.184Z,17.37
2023-02-22T15:10:12.155Z,17.37
2023-02-22T15:11:12.101Z,17.32
2023-02-22T15:12:12.061Z,17.32
2023-02-22T15:13:12.014Z,17.23
2023-02-22T15:14:24.088Z,17.27
2023-02-22T15:15:11.933Z,17.30
2023-02-22T15:16:11.909Z,17.20
2023-02-22T15:17:11.846Z,17.14
2023-02-22T15:18:11.805Z,17.13
2023-02-22T15:19:11.759Z,17.13
2023-02-22T15:20:11.719Z,17.12
2023-02-22T15:21:13.336Z,17.13
2023-02-22T15:22:11.635Z,17.16
2023-02-22T15:23:11.591Z,17.04
2023-02-22T15:24:11.571Z,17.14
2023-02-22T15:25:11.512Z,17.05
2023-02-22T15:26:11.466Z,17.12
2023-02-22T15:27:11.426Z,17.12
2023-02-22T15:28:11.381Z,17.17
2023-02-22T15:29:11.345Z,17.09
2023-02-22T15:30:11.325Z,17.20
2023-02-22T15:31:11.252Z,17.14
2023-02-22T15:32:11.304Z,17.10
2023-02-22T15:33:11.184Z,17.13
2023-02-22T15:34:11.124Z,17.02
2023-02-22T15:35:11.078Z,17.07
2023-02-22T15:36:11.038Z,17.09
2023-02-22T15:37:10.994Z,16.92
2023-02-22T15:38:10.959Z,16.98
2023-02-22T15:39:10.910Z,17.04
2023-02-22T15:40:10.888Z,17.02
2023-02-22T15:41:10.827Z,16.98
2023-02-22T15:42:10.789Z,17.01
2023-02-22T15:43:10.757Z,16.92
2023-02-22T15:44:22.644Z,16.94
2023-02-22T15:45:10.657Z,16.98
2023-02-22T15:46:10.670Z,16.98
2023-02-22T15:47:10.567Z,17.02
2023-02-22T15:48:10.529Z,16.99
2023-02-22T15:49:10.493Z,17.01
2023-02-22T15:50:10.445Z,16.92
2023-02-22T15:51:10.404Z,16.92
2023-02-22T15:52:10.356Z,16.83
2023-02-22T15:53:10.312Z,16.80
2023-02-22T15:54:15.679Z,16.77
2023-02-22T15:55:10.225Z,16.82
2023-02-22T15:56:10.205Z,16.76
2023-02-22T15:57:10.137Z,16.77
2023-02-22T15:58:10.098Z,16.76
2023-02-22T15:59:10.055Z,16.65
2023-02-22T16:00:10.012Z,16.65
2023-02-22T16:01:09.990Z,16.65
2023-02-22T16:02:09.984Z,16.59
2023-02-22T16:03:09.888Z,16.55
2023-02-22T16:04:09.839Z,16.54
2023-02-22T16:05:09.797Z,16.54
2023-02-22T16:06:09.848Z,16.51
2023-02-22T16:07:09.710Z,16.47
2023-02-22T16:08:09.666Z,16.39
2023-02-22T16:09:09.645Z,16.37
2023-02-22T16:10:09.584Z,16.32
2023-02-22T16:11:09.537Z,16.25
2023-02-22T16:12:09.548Z,16.24
2023-02-22T18:05:29.855Z,13.31
2023-02-22T18:06:29.792Z,13.16
2023-02-22T18:07:29.726Z,13.17
2023-02-22T18:08:29.680Z,13.21
2023-02-22T18:09:29.660Z,13.20
2023-02-22T18:10:29.585Z,13.19
2023-02-22T18:11:29.531Z,13.11
2023-02-22T18:12:29.480Z,13.16
2023-02-22T18:13:29.440Z,13.06
2023-02-22T18:14:29.392Z,13.05
2023-02-22T18:15:29.349Z,13.01
2023-02-22T18:16:29.343Z,13.06
2023-02-22T18:17:29.253Z,13.02
2023-02-22T18:18:29.211Z,13.06
2023-02-22T18:19:29.163Z,13.01
2023-02-22T18:20:29.115Z,12.99
2023-02-22T18:21:29.143Z,12.91
2023-02-22T18:22:29.025Z,12.93
2023-02-22T18:23:29.001Z,13.02
2023-02-22T18:24:28.935Z,12.91
2023-02-22T18:25:28.900Z,12.90
2023-02-22T18:26:29.270Z,12.88
2023-02-22T18:27:28.821Z,12.88
2023-02-22T18:28:28.758Z,12.91
2023-02-22T18:29:28.715Z,12.86
2023-02-22T18:30:28.723Z,12.84
2023-02-22T18:31:28.664Z,12.83
2023-02-22T18:32:28.652Z,12.81
2023-02-22T18:33:28.567Z,12.78
2023-02-22T18:34:28.495Z,12.72
2023-02-22T18:35:28.450Z,12.75
2023-02-22T18:36:28.410Z,12.76
2023-02-22T18:37:28.386Z,12.76
2023-02-22T18:38:28.321Z,12.75
2023-02-22T18:39:28.285Z,12.72
2023-02-22T18:40:28.233Z,12.73
2023-02-22T18:41:28.195Z,12.66
2023-02-22T18:42:28.148Z,12.70
2023-02-22T18:43:28.114Z,12.68
2023-02-22T18:44:28.056Z,12.65
2023-02-22T18:45:28.137Z,12.66
2023-02-22T18:46:28.042Z,12.69
2023-02-22T18:47:27.933Z,12.68
2023-02-22T18:48:27.892Z,12.66
2023-02-22T18:49:27.846Z,12.58
2023-02-22T18:50:27.797Z,12.63
2023-02-22T18:51:27.758Z,12.58
2023-02-22T18:52:27.710Z,12.58
2023-02-22T18:53:27.850Z,12.62
2023-02-22T18:54:27.641Z,12.70
2023-02-22T18:55:27.579Z,12.70
2023-02-22T18:56:27.538Z,12.61
2023-02-22T18:57:27.493Z,12.61
2023-02-22T18:58:27.448Z,12.65
2023-02-22T18:59:27.405Z,12.61
2023-02-22T19:00:27.361Z,12.63
2023-02-22T19:01:27.336Z,12.58
2023-02-22T19:02:27.331Z,12.63
2023-02-22T19:04:27.209Z,12.62
2023-02-22T19:05:27.151Z,12.66
2023-02-22T19:06:27.122Z,12.65
2023-02-22T19:07:27.061Z,12.55
2023-02-22T19:08:27.018Z,12.55
2023-02-22T19:09:26.998Z,12.53
2023-02-22T19:10:26.930Z,12.50
2023-02-22T19:11:26.890Z,12.44
2023-02-22T19:12:26.848Z,12.53
2023-02-22T19:13:26.797Z,12.57
2023-02-22T19:14:26.760Z,12.47
2023-02-22T19:15:26.710Z,12.40
2023-02-22T19:16:26.835Z,12.47
2023-02-22T19:17:26.631Z,12.36
2023-02-22T19:18:26.585Z,12.36
2023-02-22T19:19:26.762Z,12.44
2023-02-22T19:20:26.501Z,12.36
2023-02-22T19:21:26.465Z,12.36
2023-02-22T19:22:26.410Z,12.43
2023-02-22T19:23:26.363Z,12.36
2023-02-22T19:24:26.325Z,12.29
2023-02-22T19:25:26.499Z,12.36
2023-02-22T19:26:26.238Z,12.35
2023-02-22T19:27:26.191Z,12.32
2023-02-22T19:28:26.146Z,12.20
2023-02-22T19:29:26.106Z,12.29
2023-02-22T19:30:26.058Z,12.37
2023-02-22T19:31:26.289Z,12.23
2023-02-22T19:32:26.197Z,12.32
2023-02-22T19:33:25.949Z,12.28
2023-02-22T19:34:25.983Z,12.28
2023-02-22T19:35:25.839Z,12.25
2023-02-22T19:36:25.796Z,12.20
2023-02-22T19:37:25.761Z,12.17
2023-02-22T19:38:25.710Z,12.25
2023-02-22T19:39:25.670Z,12.14
2023-02-22T19:40:25.651Z,12.15
2023-02-22T19:41:25.637Z,12.18
2023-02-22T19:42:25.532Z,12.21
2023-02-22T19:43:25.487Z,12.11
2023-02-22T19:44:25.445Z,12.07
2023-02-22T19:45:25.474Z,12.02
2023-02-22T19:46:25.358Z,12.05
2023-02-22T19:47:25.312Z,11.97
2023-02-22T19:48:25.275Z,12.02
2023-02-22T19:50:25.183Z,12.00
2023-02-22T19:51:25.145Z,11.95
2023-02-22T19:52:25.103Z,11.96
2023-02-22T19:53:25.048Z,11.89
2023-02-22T19:54:25.007Z,11.91
2023-02-22T19:55:24.968Z,11.88
2023-02-22T19:56:24.920Z,11.88
2023-02-22T19:57:24.899Z,11.85
2023-02-22T19:58:24.860Z,11.88
2023-02-22T19:59:24.794Z,11.89
2023-02-22T20:00:24.762Z,11.86
2023-02-22T20:01:24.725Z,11.89
2023-02-22T20:02:24.659Z,11.81
2023-02-22T20:03:24.803Z,11.80
2023-02-22T20:04:24.722Z,11.81
2023-02-22T20:05:24.530Z,11.74
2023-02-22T20:06:24.484Z,11.85
2023-02-22T20:07:24.434Z,11.76
2023-02-22T20:08:24.393Z,11.76
2023-02-22T20:09:24.357Z,11.76
2023-02-22T20:10:24.302Z,11.80
2023-02-22T20:11:24.269Z,11.80
2023-02-22T20:12:24.222Z,11.76
2023-02-22T20:13:24.185Z,11.80
2023-02-22T20:14:24.131Z,11.67
2023-02-22T20:15:24.084Z,11.70
2023-02-22T20:16:24.109Z,11.65
2023-02-22T20:17:23.997Z,11.68
2023-02-22T20:18:23.954Z,11.67
2023-02-22T20:19:23.905Z,11.65
2023-02-22T20:20:23.862Z,11.71
2023-02-22T20:21:23.822Z,11.70
2023-02-22T20:22:23.775Z,11.73
2023-02-22T20:23:23.798Z,11.70
2023-02-22T20:24:23.700Z,11.65
2023-02-22T20:25:23.647Z,11.68
2023-02-22T20:26:23.612Z,11.71
2023-02-22T20:27:23.555Z,11.68
2023-02-22T20:28:23.521Z,11.60
2023-02-22T20:29:23.492Z,11.60
2023-02-22T20:30:23.432Z,11.59
2023-02-22T20:31:23.413Z,11.53
2023-02-22T20:32:23.591Z,11.71
2023-02-22T20:33:23.587Z,11.58
2023-02-22T20:34:25.941Z,11.58
2023-02-22T20:35:23.201Z,11.63
2023-02-22T20:36:23.514Z,11.63
2023-02-22T20:37:23.123Z,11.65
2023-02-22T20:38:23.096Z,11.55
2023-02-22T20:40:06.412Z,11.62
2023-02-22T20:41:06.363Z,11.58
2023-02-22T20:42:06.322Z,11.55
2023-02-22T20:43:06.275Z,11.55
2023-02-22T20:44:06.233Z,11.60
2023-02-22T20:45:06.231Z,11.60
2023-02-22T20:46:06.167Z,11.60
2023-02-22T20:47:06.104Z,11.59
2023-02-22T20:48:06.074Z,11.55
2023-02-22T20:49:06.020Z,11.59
2023-02-22T20:50:05.972Z,11.56
2023-02-22T20:51:05.922Z,11.53
2023-02-22T20:52:05.882Z,11.55
2023-02-22T20:53:05.841Z,11.60
2023-02-22T20:54:05.790Z,11.56
2023-02-22T20:55:05.749Z,11.56
2023-02-22T20:56:05.709Z,11.51
2023-02-22T20:57:05.666Z,11.62
2023-02-22T20:58:05.623Z,11.56
2023-02-22T21:00:05.534Z,11.58
2023-02-22T21:01:05.676Z,11.58
2023-02-22T21:02:05.439Z,11.51
2023-02-22T21:03:05.403Z,11.58
2023-02-22T21:04:05.365Z,11.60
2023-02-22T21:05:05.311Z,11.52
2023-02-22T21:06:05.266Z,11.51
2023-02-22T21:07:05.222Z,11.55
2023-02-22T21:08:05.177Z,11.45
2023-02-22T21:09:05.139Z,11.52
2023-02-22T21:10:05.140Z,11.52
2023-02-22T21:11:05.053Z,11.49
2023-02-22T21:12:05.004Z,11.49
2023-02-22T21:13:05.634Z,11.55
2023-02-22T21:14:04.917Z,11.55
2023-02-22T21:15:04.874Z,11.53
2023-02-22T21:16:04.825Z,11.51
2023-02-22T21:17:04.997Z,11.48
2023-02-22T21:18:04.742Z,11.60
2023-02-22T21:19:04.695Z,11.44
2023-02-22T21:20:04.648Z,11.44
2023-02-22T21:22:04.565Z,11.59
2023-02-22T21:23:04.518Z,11.45
2023-02-22T21:24:04.475Z,11.45
2023-02-22T21:25:04.431Z,11.41
2023-02-22T21:26:04.386Z,11.45
2023-02-22T21:27:04.340Z,11.41
2023-02-22T21:29:04.251Z,11.43
2023-02-22T21:30:04.236Z,11.48
2023-02-22T21:31:04.296Z,11.44
2023-02-22T21:32:04.398Z,11.43
2023-02-22T21:33:04.115Z,11.41
2023-02-22T21:34:04.049Z,11.45
2023-02-22T21:35:04.018Z,11.40
2023-02-22T21:36:03.959Z,11.35
2023-02-22T21:37:03.901Z,11.43
2023-02-22T21:38:03.852Z,11.45
2023-02-22T21:39:03.810Z,11.34
2023-02-22T21:40:03.766Z,11.40
2023-02-22T21:41:03.720Z,11.35
2023-02-22T21:42:03.675Z,11.38
2023-02-22T21:43:03.632Z,11.35
2023-02-22T21:44:03.588Z,11.34
2023-02-22T21:45:03.555Z,11.37
2023-02-22T21:46:03.591Z,11.26
2023-02-22T21:47:03.477Z,11.25
2023-02-22T21:48:03.417Z,11.30
2023-02-22T21:49:03.387Z,11.31
2023-02-22T21:50:03.328Z,11.35
2023-02-22T21:51:03.298Z,11.30
2023-02-22T21:52:03.241Z,11.27
2023-02-22T21:53:03.207Z,11.27
2023-02-22T21:54:03.212Z,11.27
2023-02-22T21:55:03.108Z,11.25
2023-02-22T21:56:03.057Z,11.30
2023-02-22T21:57:03.017Z,11.30
2023-02-22T21:58:02.989Z,11.26
2023-02-22T21:59:02.956Z,11.23
2023-02-22T22:00:02.891Z,11.23
2023-02-22T22:01:02.878Z,11.26
2023-02-22T22:02:02.826Z,11.22
2023-02-22T22:03:02.754Z,11.25
2023-02-22T22:04:02.707Z,11.33
2023-02-22T22:05:02.687Z,11.23
2023-02-22T22:06:02.624Z,11.22
2023-02-22T22:07:02.588Z,11.20
2023-02-22T22:08:02.527Z,11.26
2023-02-22T22:09:02.492Z,11.25
2023-02-22T22:10:02.440Z,11.22
2023-02-22T22:11:03.549Z,11.20
2023-02-22T22:12:02.369Z,11.22
2023-02-22T22:13:02.320Z,11.18
2023-02-22T22:14:02.265Z,11.18
2023-02-22T22:15:02.213Z,11.15
2023-02-22T22:16:02.221Z,11.20
2023-02-22T22:17:02.124Z,11.18
2023-02-22T22:18:02.102Z,11.19
2023-02-22T22:19:02.038Z,11.18
2023-02-22T22:20:02.041Z,11.10
2023-02-22T22:21:01.973Z,11.16
2023-02-22T22:22:01.906Z,11.18
2023-02-22T22:23:01.863Z,11.15
2023-02-22T22:24:01.809Z,11.20
2023-02-22T22:25:01.798Z,11.15
2023-02-22T22:26:01.736Z,11.07
2023-02-22T22:27:01.679Z,11.10
2023-02-22T22:28:01.632Z,11.16
2023-02-22T22:29:01.588Z,11.19
2023-02-22T22:30:01.560Z,11.07
2023-02-22T22:31:01.661Z,11.02
2023-02-22T22:32:01.552Z,11.10
2023-02-22T22:33:01.419Z,11.10
2023-02-22T22:34:01.372Z,11.08
2023-02-22T22:35:01.327Z,11.08
2023-02-22T22:36:01.286Z,11.10
2023-02-22T22:39:09.392Z,11.04
2023-02-22T22:40:09.336Z,11.12
2023-02-22T22:42:09.243Z,11.04
2023-02-22T22:43:09.207Z,11.12
2023-02-22T22:44:09.158Z,11.07
2023-02-22T22:45:09.111Z,11.04
2023-02-22T22:46:09.110Z,11.04
2023-02-22T22:47:09.019Z,11.02
2023-02-22T22:48:08.987Z,11.00
2023-02-22T22:49:08.961Z,10.98
2023-02-22T22:51:39.659Z,10.98
2023-02-22T22:52:39.609Z,10.97
2023-02-22T22:53:39.569Z,10.94
2023-02-22T22:54:39.545Z,10.90
2023-02-22T22:55:39.475Z,10.89
2023-02-22T22:56:39.450Z,10.98
2023-02-22T22:57:39.392Z,10.94
2023-02-22T22:58:39.342Z,11.01
2023-02-22T22:59:39.301Z,10.97
2023-02-22T23:00:39.250Z,10.98
2023-02-22T23:01:39.232Z,11.00
2023-02-22T23:02:39.236Z,10.90
2023-02-22T23:03:39.158Z,10.92
2023-02-22T23:04:39.092Z,10.90
2023-02-22T23:05:39.082Z,10.87
2023-02-22T23:07:38.980Z,10.98
2023-02-22T23:08:38.898Z,10.90
2023-02-22T23:09:38.874Z,10.90
2023-02-22T23:10:38.948Z,10.95
2023-02-22T23:11:38.766Z,10.87
2023-02-22T23:12:38.724Z,10.86
2023-02-22T23:13:38.671Z,10.89
2023-02-22T23:14:38.648Z,10.86
2023-02-22T23:15:38.590Z,10.86
2023-02-22T23:16:38.546Z,10.86
2023-02-22T23:17:38.497Z,10.84
2023-02-22T23:18:38.455Z,10.86
2023-02-22T23:19:38.406Z,10.94
2023-02-22T23:20:38.371Z,10.90
2023-02-22T23:21:38.320Z,10.90
2023-02-22T23:22:38.274Z,10.90
2023-02-22T23:23:38.234Z,10.89
2023-02-22T23:24:38.224Z,10.89
2023-02-22T23:25:38.487Z,10.90
2023-02-22T23:26:38.155Z,10.92
2023-02-22T23:27:38.061Z,10.89
2023-02-22T23:28:38.011Z,10.94
2023-02-22T23:29:37.990Z,10.89
2023-02-22T23:30:37.986Z,10.87
2023-02-22T23:31:37.982Z,10.86
